createdAt,value
2023-01-26T00:00:12.529Z,66.13
2023-01-26T00:02:39.459Z,66.35
2023-01-26T00:05:06.811Z,66.27
2023-01-26T00:07:33.646Z,66.45
2023-01-26T00:10:00.368Z,66.87
2023-01-26T00:12:27.236Z,66.78
2023-01-26T00:14:54.155Z,66.82
2023-01-26T00:17:28.045Z,66.83
2023-01-26T00:19:56.393Z,67.23
2023-01-26T00:22:24.264Z,67.45
2023-01-26T00:24:50.994Z,67.48
2023-01-26T00:27:17.830Z,67.39
2023-01-26T00:29:44.478Z,67.29
2023-01-26T00:32:11.195Z,67.17
2023-01-26T00:34:39.178Z,66.99
2023-01-26T00:37:06.088Z,67.13
2023-01-26T00:39:32.731Z,66.82
2023-01-26T00:42:06.942Z,66.75
2023-01-26T00:44:35.059Z,66.42
2023-01-26T00:47:02.175Z,66.11
2023-01-26T00:49:28.798Z,66.07
2023-01-26T00:51:56.842Z,66.19
2023-01-26T00:54:23.544Z,66.70
2023-01-26T00:56:50.205Z,66.41
2023-01-26T00:59:16.889Z,66.42
2023-01-26T01:01:46.433Z,66.29
2023-01-26T01:04:13.841Z,66.41
2023-01-26T01:06:40.768Z,66.39
2023-01-26T01:09:08.784Z,66.50
2023-01-26T01:11:35.772Z,66.28
2023-01-26T01:14:02.499Z,66.43
2023-01-26T01:16:29.314Z,66.63
2023-01-26T01:18:57.459Z,66.40
2023-01-26T01:21:25.352Z,66.45
2023-01-26T01:23:53.730Z,66.09
2023-01-26T01:26:21.819Z,66.24
2023-01-26T01:28:48.689Z,66.13
2023-01-26T01:31:16.803Z,65.75
2023-01-26T01:33:44.082Z,65.69
2023-01-26T01:36:12.606Z,65.92
2023-01-26T01:38:39.445Z,66.13
2023-01-26T01:41:06.509Z,66.04
2023-01-26T01:43:35.600Z,66.00
2023-01-26T01:46:07.006Z,65.56
2023-01-26T01:48:38.924Z,65.89
2023-01-26T01:51:08.383Z,65.71
2023-01-26T01:53:39.264Z,65.73
2023-01-26T01:56:11.185Z,65.62
2023-01-26T01:58:42.680Z,65.78
2023-01-26T02:01:10.530Z,65.47
2023-01-26T02:03:38.841Z,65.57
2023-01-26T02:06:12.242Z,65.54
2023-01-26T02:08:41.155Z,66.06
2023-01-26T02:11:11.594Z,65.88
2023-01-26T02:13:41.259Z,65.72
2023-01-26T02:16:08.372Z,65.49
2023-01-26T02:18:35.108Z,65.67
2023-01-26T02:21:04.494Z,66.01
2023-01-26T02:23:42.539Z,65.81
2023-01-26T02:26:14.179Z,65.68
2023-01-26T02:28:42.694Z,65.14
2023-01-26T02:31:11.167Z,65.21
2023-01-26T02:33:38.324Z,65.62
2023-01-26T02:36:07.362Z,65.55
2023-01-26T02:38:41.093Z,65.56
2023-01-26T02:41:10.457Z,65.47
2023-01-26T02:43:39.043Z,65.85
2023-01-26T02:46:05.817Z,65.48
2023-01-26T02:48:55.326Z,65.51
2023-01-26T02:51:22.900Z,64.98
2023-01-26T02:53:49.691Z,64.91
2023-01-26T02:56:17.226Z,64.59
2023-01-26T02:58:45.200Z,64.50
2023-01-26T03:01:11.932Z,64.89
2023-01-26T03:03:46.884Z,65.10
2023-01-26T03:06:15.209Z,65.32
2023-01-26T03:08:42.117Z,65.13
2023-01-26T03:11:09.862Z,65.03
2023-01-26T03:13:37.363Z,64.82
2023-01-26T03:16:08.865Z,65.38
2023-01-26T03:18:55.246Z,65.60
2023-01-26T03:21:41.160Z,65.75
2023-01-26T03:24:30.867Z,65.75
2023-01-26T03:27:17.992Z,65.73
2023-01-26T03:29:45.698Z,65.97
2023-01-26T03:32:13.792Z,65.59
2023-01-26T03:34:42.133Z,66.13
2023-01-26T03:37:08.884Z,65.96
2023-01-26T03:40:02.043Z,66.41
2023-01-26T03:42:47.724Z,66.39
2023-01-26T03:45:33.042Z,66.82
2023-01-26T03:48:24.667Z,66.25
2023-01-26T03:51:09.939Z,65.99
2023-01-26T03:53:55.827Z,66.17
2023-01-26T03:56:24.618Z,66.21
2023-01-26T03:58:56.545Z,66.25
2023-01-26T04:01:28.012Z,66.52
2023-01-26T04:04:16.976Z,65.75
2023-01-26T04:07:06.057Z,65.49
2023-01-26T04:09:34.173Z,65.81
2023-01-26T04:12:01.021Z,66.07
2023-01-26T04:14:49.873Z,66.21
2023-01-26T04:17:39.601Z,65.86
2023-01-26T04:20:27.608Z,65.73
2023-01-26T04:22:54.277Z,65.64
2023-01-26T04:25:21.991Z,65.59
2023-01-26T04:27:49.253Z,65.44
2023-01-26T04:30:17.825Z,65.37
2023-01-26T04:32:46.090Z,65.17
2023-01-26T04:35:14.618Z,65.52
2023-01-26T04:37:42.753Z,65.88
2023-01-26T04:40:10.961Z,65.76
2023-01-26T04:42:38.144Z,66.41
2023-01-26T04:45:06.440Z,66.30
2023-01-26T04:47:34.533Z,66.15
2023-01-26T04:50:02.218Z,66.10
2023-01-26T04:52:30.248Z,65.37
2023-01-26T04:54:56.888Z,65.54
2023-01-26T04:57:24.585Z,65.30
2023-01-26T04:59:52.019Z,64.84
2023-01-26T05:02:20.054Z,64.76
2023-01-26T05:04:46.963Z,64.71
2023-01-26T05:07:14.803Z,65.09
2023-01-26T05:09:42.833Z,64.99
2023-01-26T05:12:33.685Z,65.31
2023-01-26T05:15:23.444Z,65.33
2023-01-26T05:18:00.718Z,65.00
2023-01-26T05:20:48.193Z,64.78
2023-01-26T05:23:17.475Z,65.29
2023-01-26T05:26:08.196Z,65.48
2023-01-26T05:28:44.615Z,64.96
2023-01-26T05:31:11.267Z,65.21
2023-01-26T05:33:38.066Z,65.71
2023-01-26T05:36:07.373Z,65.61
2023-01-26T05:38:34.630Z,65.76
2023-01-26T05:41:01.269Z,65.60
2023-01-26T05:43:33.826Z,65.54
2023-01-26T05:46:16.046Z,65.65
2023-01-26T05:48:43.732Z,65.65
2023-01-26T05:51:10.984Z,65.46
2023-01-26T05:53:38.636Z,65.80
2023-01-26T05:56:05.631Z,65.82
2023-01-26T05:58:35.802Z,65.76
2023-01-26T06:01:04.381Z,65.55
2023-01-26T06:03:37.070Z,64.97
2023-01-26T06:06:04.103Z,65.20
2023-01-26T06:08:39.961Z,64.42
2023-01-26T06:11:25.336Z,64.98
2023-01-26T06:14:22.768Z,65.67
2023-01-26T06:16:49.816Z,65.34
2023-01-26T06:19:16.529Z,65.78
2023-01-26T06:21:49.008Z,65.75
2023-01-26T06:24:15.906Z,65.42
2023-01-26T06:26:42.550Z,65.32
2023-01-26T06:29:10.775Z,65.53
2023-01-26T06:31:39.133Z,64.82
2023-01-26T06:34:06.145Z,65.14
2023-01-26T06:36:37.780Z,64.62
2023-01-26T06:39:05.468Z,64.81
2023-01-26T06:41:32.934Z,65.82
2023-01-26T06:43:59.747Z,66.18
2023-01-26T06:46:26.486Z,65.69
2023-01-26T06:48:55.957Z,64.75
2023-01-26T06:51:48.248Z,65.07
2023-01-26T06:54:15.821Z,65.48
2023-01-26T06:57:08.784Z,65.29
2023-01-26T06:59:58.365Z,65.64
2023-01-26T07:02:43.547Z,65.24
2023-01-26T07:05:12.826Z,65.03
2023-01-26T07:07:39.512Z,65.63
2023-01-26T07:10:07.440Z,65.93
2023-01-26T07:12:41.915Z,65.49
2023-01-26T07:15:09.539Z,65.79
2023-01-26T07:17:36.148Z,66.06
2023-01-26T07:20:02.963Z,66.09
2023-01-26T07:22:30.907Z,66.27
2023-01-26T07:24:57.508Z,66.38
2023-01-26T07:27:24.156Z,66.47
2023-01-26T07:29:51.337Z,66.05
2023-01-26T07:32:18.143Z,65.88
2023-01-26T07:34:45.345Z,65.99
2023-01-26T07:37:11.984Z,65.70
2023-01-26T07:39:39.915Z,65.67
2023-01-26T07:42:06.578Z,66.00
2023-01-26T07:44:47.937Z,65.96
2023-01-26T07:47:14.786Z,65.53
2023-01-26T07:49:41.482Z,64.92
2023-01-26T07:52:09.204Z,64.62
2023-01-26T07:54:35.880Z,64.26
2023-01-26T07:57:06.912Z,64.49
2023-01-26T07:59:33.799Z,64.22
2023-01-26T08:02:00.992Z,64.32
2023-01-26T08:04:27.657Z,64.30
2023-01-26T08:06:54.389Z,64.78
2023-01-26T08:09:21.119Z,64.93
2023-01-26T08:11:47.751Z,64.73
2023-01-26T08:14:15.728Z,64.61
2023-01-26T08:16:42.555Z,64.46
2023-01-26T08:19:09.312Z,64.54
2023-01-26T08:21:36.235Z,64.71
2023-01-26T08:24:03.518Z,64.81
2023-01-26T08:26:30.206Z,64.90
2023-01-26T08:28:56.967Z,64.77
2023-01-26T08:31:25.484Z,65.25
2023-01-26T08:33:53.279Z,65.28
2023-01-26T08:36:22.574Z,65.45
2023-01-26T08:38:49.936Z,65.75
2023-01-26T08:41:16.626Z,65.01
2023-01-26T08:43:43.438Z,65.24
2023-01-26T08:46:10.837Z,65.30
2023-01-26T08:48:38.934Z,65.72
2023-01-26T08:51:07.037Z,65.27
2023-01-26T08:53:35.694Z,64.49
2023-01-26T08:56:02.431Z,64.30
2023-01-26T08:58:29.658Z,64.13
2023-01-26T09:00:56.261Z,64.50
2023-01-26T09:03:22.942Z,65.32
2023-01-26T09:05:50.951Z,65.61
2023-01-26T09:08:17.611Z,66.45
2023-01-26T09:10:45.165Z,65.85
2023-01-26T09:13:11.941Z,65.04
2023-01-26T09:15:38.842Z,65.17
2023-01-26T09:18:06.029Z,65.61
2023-01-26T09:20:32.859Z,65.51
2023-01-26T09:23:00.852Z,66.11
2023-01-26T09:25:27.509Z,66.30
2023-01-26T09:27:54.101Z,66.27
2023-01-26T09:30:21.003Z,66.11
2023-01-26T09:32:47.680Z,66.00
2023-01-26T09:35:15.266Z,66.33
2023-01-26T09:37:43.511Z,66.47
2023-01-26T09:40:17.758Z,66.39
2023-01-26T09:42:57.687Z,65.94
2023-01-26T09:45:29.110Z,65.80
2023-01-26T09:48:09.756Z,65.63
2023-01-26T09:50:42.000Z,65.63
2023-01-26T09:53:14.949Z,65.51
2023-01-26T09:55:45.175Z,65.53
2023-01-26T09:58:15.677Z,65.65
2023-01-26T10:00:47.216Z,65.96
2023-01-26T10:03:23.538Z,65.84
2023-01-26T10:05:54.292Z,64.86
2023-01-26T10:08:40.783Z,64.48
2023-01-26T10:11:17.034Z,64.26
2023-01-26T10:13:51.456Z,63.74
2023-01-26T10:16:18.382Z,63.55
2023-01-26T10:18:53.956Z,63.25
2023-01-26T10:21:25.382Z,63.82
2023-01-26T10:23:52.565Z,64.01
2023-01-26T10:26:22.297Z,64.44
2023-01-26T10:28:51.773Z,64.24
2023-01-26T10:31:21.317Z,64.35
2023-01-26T10:33:51.787Z,63.54
2023-01-26T10:36:18.806Z,63.29
2023-01-26T10:38:47.095Z,63.33
2023-01-26T10:41:33.453Z,63.13
2023-01-26T10:44:02.561Z,62.89
2023-01-26T10:46:33.023Z,62.72
2023-01-26T10:49:02.260Z,63.05
2023-01-26T10:51:31.368Z,62.94
2023-01-26T10:54:28.374Z,62.70
2023-01-26T10:56:58.697Z,62.93
2023-01-26T10:59:29.662Z,63.40
2023-01-26T11:01:59.184Z,64.27
2023-01-26T11:04:27.349Z,64.26
2023-01-26T11:06:55.032Z,64.24
2023-01-26T11:09:26.323Z,64.82
2023-01-26T11:12:00.693Z,64.89
2023-01-26T11:14:28.210Z,65.00
2023-01-26T11:17:04.601Z,64.74
2023-01-26T11:19:38.450Z,64.68
2023-01-26T11:22:08.477Z,64.17
2023-01-26T11:24:45.137Z,64.28
2023-01-26T11:27:40.194Z,64.53
2023-01-26T11:30:52.090Z,64.84
2023-01-26T11:33:29.076Z,63.94
2023-01-26T11:36:06.130Z,63.89
2023-01-26T11:38:38.420Z,64.29
2023-01-26T11:41:20.662Z,64.62
2023-01-26T11:44:12.041Z,64.20
2023-01-26T11:46:54.344Z,64.31
2023-01-26T11:49:34.338Z,64.81
2023-01-26T11:52:11.085Z,64.72
2023-01-26T11:54:50.427Z,64.76
2023-01-26T11:57:27.808Z,64.23
2023-01-26T12:00:00.646Z,64.31
2023-01-26T12:02:31.588Z,63.83
2023-01-26T12:05:03.457Z,63.44
2023-01-26T12:07:33.372Z,63.29
2023-01-26T12:10:00.534Z,63.13
2023-01-26T12:12:38.331Z,63.51
2023-01-26T12:15:13.757Z,62.72
2023-01-26T12:17:50.976Z,63.21
2023-01-26T12:20:28.655Z,62.79
2023-01-26T12:23:02.195Z,62.82
2023-01-26T12:25:33.746Z,63.25
2023-01-26T12:28:11.242Z,63.28
2023-01-26T12:30:47.702Z,62.92
2023-01-26T12:33:15.138Z,63.14
2023-01-26T12:35:59.701Z,62.70
2023-01-26T12:38:43.174Z,62.29
2023-01-26T12:41:16.174Z,62.22
2023-01-26T12:43:57.436Z,61.99
2023-01-26T12:46:29.178Z,62.38
2023-01-26T12:49:02.731Z,62.84
2023-01-26T12:51:34.503Z,63.66
2023-01-26T12:54:08.004Z,63.29
2023-01-26T12:56:41.108Z,62.90
2023-01-26T12:59:39.816Z,63.32
2023-01-26T13:02:17.853Z,63.26
2023-01-26T13:04:48.603Z,62.79
2023-01-26T13:07:34.700Z,62.97
2023-01-26T13:10:21.558Z,63.04
2023-01-26T13:12:50.326Z,62.97
2023-01-26T13:15:18.763Z,63.15
2023-01-26T13:17:57.804Z,63.29
2023-01-26T13:20:50.518Z,63.54
2023-01-26T13:23:52.418Z,63.78
2023-01-26T13:26:45.958Z,63.59
2023-01-26T13:29:28.630Z,63.32
2023-01-26T13:31:56.748Z,63.60
2023-01-26T13:34:28.101Z,63.54
2023-01-26T13:37:00.599Z,63.56
2023-01-26T13:39:31.142Z,63.26
2023-01-26T13:41:57.837Z,63.29
2023-01-26T13:44:36.616Z,63.87
2023-01-26T13:47:10.386Z,63.86
2023-01-26T13:49:40.463Z,63.89
2023-01-26T13:52:17.193Z,63.78
2023-01-26T13:54:44.926Z,63.87
2023-01-26T13:57:12.172Z,63.98
2023-01-26T13:59:49.005Z,63.54
2023-01-26T14:02:23.815Z,63.65
2023-01-26T14:04:58.046Z,63.68
2023-01-26T14:07:28.145Z,63.17
2023-01-26T14:09:59.936Z,63.59
2023-01-26T14:12:31.687Z,63.87
2023-01-26T14:15:02.039Z,63.62
2023-01-26T14:17:30.965Z,63.70
2023-01-26T14:20:00.638Z,63.55
2023-01-26T14:22:28.004Z,63.53
2023-01-26T14:24:55.541Z,63.73
2023-01-26T14:27:37.933Z,63.09
2023-01-26T14:30:23.012Z,63.17
2023-01-26T14:32:56.356Z,63.67
2023-01-26T14:35:25.185Z,63.77
2023-01-26T14:38:05.765Z,63.47
2023-01-26T14:40:32.512Z,63.60
2023-01-26T14:42:59.480Z,63.47
2023-01-26T14:45:31.232Z,63.29
2023-01-26T14:48:01.880Z,63.52
2023-01-26T14:50:32.367Z,63.07
2023-01-26T14:53:01.346Z,62.93
2023-01-26T14:55:29.868Z,62.87
2023-01-26T14:57:57.572Z,62.41
2023-01-26T15:00:27.495Z,62.93
2023-01-26T15:02:54.709Z,63.09
2023-01-26T15:05:23.267Z,62.98
2023-01-26T15:07:56.505Z,63.11
2023-01-26T15:10:37.980Z,63.22
2023-01-26T15:13:20.055Z,62.69
2023-01-26T15:15:49.052Z,63.17
2023-01-26T15:18:20.591Z,63.20
2023-01-26T15:21:00.243Z,63.18
2023-01-26T15:23:30.802Z,63.32
2023-01-26T15:26:05.473Z,63.35
2023-01-26T15:28:33.014Z,63.35
2023-01-26T15:30:59.971Z,63.47
2023-01-26T15:33:47.870Z,63.95
2023-01-26T15:36:27.447Z,63.63
2023-01-26T15:39:09.785Z,63.49
2023-01-26T15:41:36.527Z,63.52
2023-01-26T15:44:03.378Z,64.09
2023-01-26T15:46:30.153Z,64.21
2023-01-26T15:48:57.232Z,64.02
2023-01-26T15:51:23.940Z,63.73
2023-01-26T15:53:50.820Z,63.42
2023-01-26T15:56:18.872Z,63.66
2023-01-26T15:58:45.542Z,63.89
2023-01-26T16:01:15.772Z,64.03
2023-01-26T16:03:42.940Z,64.08
2023-01-26T16:06:19.751Z,63.97
2023-01-26T16:08:46.380Z,63.80
2023-01-26T16:11:14.121Z,64.15
2023-01-26T16:13:57.323Z,64.34
2023-01-26T16:16:29.715Z,64.96
2023-01-26T16:18:56.996Z,64.74
2023-01-26T16:21:28.746Z,64.55
2023-01-26T16:23:55.666Z,65.01
2023-01-26T16:26:22.414Z,64.42
2023-01-26T16:28:50.423Z,64.66
2023-01-26T16:31:19.895Z,64.39
2023-01-26T16:33:47.674Z,64.14
2023-01-26T16:36:15.503Z,64.07
2023-01-26T16:38:42.656Z,64.28
2023-01-26T16:41:15.623Z,64.61
2023-01-26T16:43:43.183Z,64.90
2023-01-26T16:46:11.478Z,64.72
2023-01-26T16:48:40.150Z,64.88
2023-01-26T16:51:20.011Z,64.61
2023-01-26T16:53:47.529Z,64.39
2023-01-26T16:56:15.719Z,64.51
2023-01-26T16:58:42.401Z,64.77
2023-01-26T17:01:18.033Z,64.48
2023-01-26T17:03:45.334Z,64.37
2023-01-26T17:06:12.594Z,64.64
2023-01-26T17:08:39.653Z,64.40
2023-01-26T17:11:06.621Z,64.33
2023-01-26T17:13:33.270Z,64.47
2023-01-26T17:16:00.055Z,64.51
2023-01-26T17:18:28.041Z,64.59
2023-01-26T17:20:54.762Z,64.37
2023-01-26T17:23:21.355Z,64.40
2023-01-26T17:25:48.468Z,64.23
2023-01-26T17:28:15.178Z,64.50
2023-01-26T17:30:41.907Z,64.58
2023-01-26T17:33:08.650Z,64.11
2023-01-26T17:35:37.474Z,64.19
2023-01-26T17:38:04.724Z,63.97
2023-01-26T17:40:31.433Z,64.20
2023-01-26T17:42:58.226Z,64.70
2023-01-26T17:45:25.741Z,64.35
2023-01-26T17:47:54.299Z,64.48
2023-01-26T17:50:22.059Z,64.50
2023-01-26T17:52:50.515Z,64.16
2023-01-26T17:55:17.691Z,63.81
2023-01-26T17:57:44.786Z,64.26
2023-01-26T18:00:13.120Z,63.98
2023-01-26T18:02:39.964Z,63.69
2023-01-26T18:05:08.812Z,63.52
2023-01-26T18:07:35.887Z,63.69
2023-01-26T18:10:05.014Z,63.79
2023-01-26T18:12:33.235Z,63.97
2023-01-26T18:15:00.191Z,64.04
2023-01-26T18:17:26.928Z,64.17
2023-01-26T18:19:55.190Z,64.13
2023-01-26T18:22:22.631Z,64.53
2023-01-26T18:24:49.636Z,64.24
2023-01-26T18:27:17.723Z,64.31
2023-01-26T18:29:44.389Z,64.60
2023-01-26T18:32:11.238Z,64.23
2023-01-26T18:34:40.852Z,64.41
2023-01-26T18:37:07.656Z,64.32
2023-01-26T18:39:34.333Z,64.01
2023-01-26T18:42:01.023Z,64.16
2023-01-26T18:44:28.996Z,64.10
2023-01-26T18:46:55.679Z,64.02
2023-01-26T18:49:22.409Z,64.34
2023-01-26T18:51:49.469Z,64.35
2023-01-26T18:54:17.160Z,64.23
2023-01-26T18:56:44.334Z,64.44
2023-01-26T18:59:12.511Z,64.05
2023-01-26T19:01:40.699Z,64.04
2023-01-26T19:04:07.439Z,64.34
2023-01-26T19:06:35.255Z,64.44
2023-01-26T19:09:05.267Z,64.17
2023-01-26T19:11:33.449Z,64.16
2023-01-26T19:14:01.177Z,64.17
2023-01-26T19:16:28.921Z,64.19
2023-01-26T19:18:57.368Z,63.97
2023-01-26T19:21:25.735Z,63.91
2023-01-26T19:23:54.757Z,64.13
2023-01-26T19:26:23.483Z,64.00
2023-01-26T19:28:51.055Z,64.06
2023-01-26T19:31:19.294Z,63.75
2023-01-26T19:33:50.236Z,63.81
2023-01-26T19:36:18.490Z,63.64
2023-01-26T19:38:46.077Z,63.86
2023-01-26T19:41:13.149Z,63.91
2023-01-26T19:43:40.971Z,64.15
2023-01-26T19:46:09.292Z,63.78
2023-01-26T19:48:36.188Z,63.68
2023-01-26T19:51:05.537Z,63.70
2023-01-26T19:53:35.968Z,63.51
2023-01-26T19:56:06.246Z,63.64
2023-01-26T19:58:33.412Z,63.66
2023-01-26T20:01:01.006Z,63.88
2023-01-26T20:03:28.360Z,64.36
2023-01-26T20:05:55.234Z,63.99
2023-01-26T20:08:21.966Z,64.22
2023-01-26T20:10:50.269Z,64.92
2023-01-26T20:13:17.297Z,64.51
2023-01-26T20:15:44.071Z,64.72
2023-01-26T20:18:11.207Z,64.55
2023-01-26T20:20:38.689Z,64.71
2023-01-26T20:23:07.697Z,64.38
2023-01-26T20:25:37.181Z,64.40
2023-01-26T20:28:05.759Z,64.30
2023-01-26T20:30:33.627Z,63.98
2023-01-26T20:33:02.334Z,64.50
2023-01-26T20:35:29.775Z,64.28
2023-01-26T20:37:57.215Z,64.34
2023-01-26T20:40:24.367Z,64.20
2023-01-26T20:42:53.046Z,64.34
2023-01-26T20:45:22.722Z,64.26
2023-01-26T20:47:49.791Z,64.17
2023-01-26T20:50:17.458Z,64.10
2023-01-26T20:52:44.502Z,64.03
2023-01-26T20:55:13.171Z,64.17
2023-01-26T20:57:41.897Z,64.13
2023-01-26T21:00:10.493Z,64.31
2023-01-26T21:02:38.699Z,64.28
2023-01-26T21:05:07.980Z,64.18
2023-01-26T21:07:34.846Z,64.22
2023-01-26T21:10:02.261Z,63.96
2023-01-26T21:12:29.277Z,63.82
2023-01-26T21:14:56.065Z,64.11
2023-01-26T21:17:24.359Z,64.24
2023-01-26T21:19:52.501Z,64.39
2023-01-26T21:22:21.038Z,64.17
2023-01-26T21:24:48.004Z,64.39
2023-01-26T21:27:15.651Z,64.33
2023-01-26T21:29:42.343Z,64.36
2023-01-26T21:32:09.059Z,64.36
2023-01-26T21:34:36.142Z,64.05
2023-01-26T21:37:06.317Z,64.19
2023-01-26T21:39:33.077Z,63.95
2023-01-26T21:42:00.742Z,64.08
2023-01-26T21:44:29.575Z,63.91
2023-01-26T21:46:58.210Z,63.85
2023-01-26T21:49:25.310Z,63.93
2023-01-26T21:52:11.355Z,64.18
2023-01-26T21:54:39.474Z,64.21
2023-01-26T21:57:29.113Z,63.76
2023-01-26T21:59:56.486Z,63.71
2023-01-26T22:02:23.476Z,63.38
2023-01-26T22:04:50.872Z,63.42
2023-01-26T22:07:17.810Z,62.99
2023-01-26T22:09:45.861Z,63.31
2023-01-26T22:12:12.482Z,63.85
2023-01-26T22:14:39.700Z,64.06
2023-01-26T22:17:06.324Z,64.16
2023-01-26T22:19:32.944Z,64.13
2023-01-26T22:21:59.597Z,64.23
2023-01-26T22:24:26.324Z,63.82
2023-01-26T22:26:54.243Z,64.14
2023-01-26T22:29:20.928Z,63.57
2023-01-26T22:31:47.673Z,64.31
2023-01-26T22:34:14.330Z,63.66
2023-01-26T22:36:41.340Z,63.62
2023-01-26T22:39:08.536Z,63.82
2023-01-26T22:41:35.973Z,64.05
2023-01-26T22:44:04.035Z,64.29
2023-01-26T22:46:31.599Z,64.43
2023-01-26T22:48:59.153Z,64.51
2023-01-26T22:51:28.146Z,64.90
2023-01-26T22:53:56.261Z,64.22
2023-01-26T22:56:23.797Z,63.72
2023-01-26T22:58:58.037Z,63.27
2023-01-26T23:01:28.163Z,63.31
2023-01-26T23:03:55.527Z,62.88
2023-01-26T23:06:22.759Z,62.80
2023-01-26T23:08:49.710Z,63.15
2023-01-26T23:11:18.094Z,63.79
2023-01-26T23:13:46.050Z,63.90
2023-01-26T23:16:13.297Z,64.12
2023-01-26T23:18:41.772Z,64.48
2023-01-26T23:21:09.774Z,64.72
2023-01-26T23:23:38.501Z,64.50
2023-01-26T23:26:05.296Z,64.15
2023-01-26T23:28:34.352Z,63.65
2023-01-26T23:31:01.288Z,64.02
2023-01-26T23:33:29.863Z,63.84
2023-01-26T23:35:58.150Z,63.90
2023-01-26T23:38:26.686Z,63.68
2023-01-26T23:40:53.902Z,63.86
2023-01-26T23:43:21.358Z,63.78
2023-01-26T23:45:50.131Z,64.01
2023-01-26T23:48:17.094Z,63.81
2023-01-26T23:50:43.797Z,64.11
2023-01-26T23:53:12.335Z,64.60
2023-01-26T23:55:41.238Z,64.23
2023-01-26T23:58:07.978Z,64.42
